createdAt,value
2017-03-19T00:00:23.474Z,45.07
2017-03-19T00:00:55.740Z,45.07
2017-03-19T00:01:28.011Z,45.07
2017-03-19T00:02:00.387Z,45.54
2017-03-19T00:02:32.713Z,45.54
2017-03-19T00:03:05.024Z,45.57
2017-03-19T00:03:37.351Z,45.57
2017-03-19T00:04:09.667Z,45.47
2017-03-19T00:04:41.983Z,45
2017-03-19T00:05:14.300Z,44.97
2017-03-19T00:05:46.620Z,45.07
2017-03-19T00:06:18.934Z,45.67
2017-03-19T00:06:51.258Z,45.16
2017-03-19T00:07:23.563Z,45.07
2017-03-19T00:07:55.886Z,44.97
2017-03-19T00:08:28.227Z,45.54
2017-03-19T00:09:00.538Z,45.37
2017-03-19T00:09:32.852Z,45
2017-03-19T00:10:05.165Z,45
2017-03-19T00:10:37.482Z,45.54
2017-03-19T00:11:09.808Z,45.54
2017-03-19T00:11:42.141Z,45.57
2017-03-19T00:12:14.468Z,45.16
2017-03-19T00:12:46.804Z,45.47
2017-03-19T00:13:19.134Z,45.09
2017-03-19T00:13:51.467Z,45.07
2017-03-19T00:14:23.788Z,45.07
2017-03-19T00:14:56.115Z,45.07
2017-03-19T00:15:28.429Z,44.97
2017-03-19T00:16:00.743Z,45.64
2017-03-19T00:16:33.064Z,45.37
2017-03-19T00:17:05.410Z,45.37
2017-03-19T00:17:37.732Z,44.97
2017-03-19T00:18:10.054Z,45.67
2017-03-19T00:18:42.368Z,45.57
2017-03-19T00:19:14.681Z,45.54
2017-03-19T00:19:46.998Z,44.97
2017-03-19T00:20:19.313Z,45.57
2017-03-19T00:20:51.647Z,45
2017-03-19T00:21:23.975Z,45.09
2017-03-19T00:21:56.285Z,45
2017-03-19T00:22:28.612Z,45.09
2017-03-19T00:23:00.933Z,45.57
2017-03-19T00:23:33.250Z,45.07
2017-03-19T00:24:05.558Z,45.47
2017-03-19T00:24:37.891Z,45.45
2017-03-19T00:25:10.217Z,44.97
2017-03-19T00:25:42.523Z,45.47
2017-03-19T00:26:14.825Z,45.47
2017-03-19T00:26:47.155Z,45
2017-03-19T00:27:19.468Z,45.67
2017-03-19T00:27:51.781Z,45.45
2017-03-19T00:28:24.112Z,45.09
2017-03-19T00:28:56.446Z,45.45
2017-03-19T00:29:28.760Z,44.97
2017-03-19T00:30:01.087Z,45.45
2017-03-19T00:30:33.401Z,45.57
2017-03-19T00:31:05.709Z,44.97
2017-03-19T00:31:38.015Z,45.54
2017-03-19T00:32:10.320Z,45.45
2017-03-19T00:32:42.587Z,45.57
2017-03-19T00:33:15.439Z,45.57
2017-03-19T00:33:47.714Z,45.09
2017-03-19T00:34:19.993Z,45.47
2017-03-19T00:34:52.242Z,45
2017-03-19T00:35:25.338Z,45
2017-03-19T00:35:57.594Z,45.57
2017-03-19T00:36:29.943Z,45.09
2017-03-19T00:37:02.209Z,45.07
2017-03-19T00:37:34.468Z,45.57
2017-03-19T00:38:06.721Z,45.57
2017-03-19T00:38:39.003Z,45.57
2017-03-19T00:39:11.262Z,45.67
2017-03-19T00:39:44.405Z,45.57
2017-03-19T00:40:16.675Z,45.47
2017-03-19T00:40:48.937Z,45
2017-03-19T00:41:21.884Z,44.97
2017-03-19T00:41:54.131Z,45.54
2017-03-19T00:42:26.456Z,45.57
2017-03-19T00:42:58.771Z,45.37
2017-03-19T00:43:31.098Z,45
2017-03-19T00:44:03.447Z,45
2017-03-19T00:44:35.778Z,45.09
2017-03-19T00:45:08.111Z,45.09
2017-03-19T00:45:40.419Z,45
2017-03-19T00:46:12.746Z,45.47
2017-03-19T00:46:45.075Z,45
2017-03-19T00:47:17.411Z,45.09
2017-03-19T00:47:49.735Z,45
2017-03-19T00:48:22.057Z,45.57
2017-03-19T00:48:54.391Z,44.9
2017-03-19T00:49:26.700Z,45.47
2017-03-19T00:49:59.029Z,45.67
2017-03-19T00:50:31.353Z,45.57
2017-03-19T00:51:03.671Z,45.47
2017-03-19T00:51:35.997Z,45
2017-03-19T00:52:08.335Z,45.47
2017-03-19T00:52:40.644Z,45.47
2017-03-19T00:53:12.954Z,45.67
2017-03-19T00:53:45.273Z,45.47
2017-03-19T00:54:17.596Z,45.09
2017-03-19T00:54:49.927Z,45.67
2017-03-19T00:55:22.276Z,45
2017-03-19T00:55:54.595Z,45.67
2017-03-19T00:56:26.905Z,45.47
2017-03-19T00:56:59.225Z,45.47
2017-03-19T00:57:31.543Z,45.57
2017-03-19T00:58:03.845Z,45.09
2017-03-19T00:58:36.159Z,45
2017-03-19T00:59:08.485Z,45.09
2017-03-19T00:59:40.798Z,45
2017-03-19T01:00:13.120Z,45.09
2017-03-19T01:00:47.297Z,45
2017-03-19T01:01:19.641Z,45.47
2017-03-19T01:01:51.943Z,45.47
2017-03-19T01:02:24.208Z,45.47
2017-03-19T01:02:56.468Z,45.09
2017-03-19T01:03:29.456Z,45.47
2017-03-19T01:04:01.723Z,45.47
2017-03-19T01:04:33.978Z,45.57
2017-03-19T01:05:06.240Z,45.47
2017-03-19T01:05:38.501Z,45.57
2017-03-19T01:06:10.759Z,45.47
2017-03-19T01:06:43.011Z,45.47
2017-03-19T01:07:15.298Z,45
2017-03-19T01:07:47.565Z,45
2017-03-19T01:08:19.832Z,45.67
2017-03-19T01:08:52.109Z,45.47
2017-03-19T01:09:24.391Z,45
2017-03-19T01:09:56.648Z,45
2017-03-19T01:10:28.898Z,45.37
2017-03-19T01:11:01.144Z,45.37
2017-03-19T01:11:33.394Z,45
2017-03-19T01:12:05.659Z,45.47
2017-03-19T01:12:37.932Z,45.09
2017-03-19T01:13:10.188Z,45.57
2017-03-19T01:13:42.459Z,45.37
2017-03-19T01:14:14.722Z,45
2017-03-19T01:14:46.982Z,45
2017-03-19T01:15:19.248Z,45
2017-03-19T01:15:51.507Z,45.47
2017-03-19T01:16:23.889Z,45.37
2017-03-19T01:16:56.138Z,45.09
2017-03-19T01:17:28.395Z,45.37
2017-03-19T01:18:00.740Z,45.47
2017-03-19T01:18:33.950Z,45.09
2017-03-19T01:19:06.231Z,45.47
2017-03-19T01:19:38.504Z,45.47
2017-03-19T01:20:10.756Z,45.47
2017-03-19T01:20:43.008Z,45
2017-03-19T01:21:15.260Z,45.47
2017-03-19T01:21:47.525Z,45.47
2017-03-19T01:22:19.855Z,45.37
2017-03-19T01:22:52.173Z,45.09
2017-03-19T01:23:24.495Z,45.57
2017-03-19T01:23:56.832Z,45.47
2017-03-19T01:24:29.149Z,45
2017-03-19T01:25:01.466Z,45.09
2017-03-19T01:25:33.778Z,45
2017-03-19T01:26:06.106Z,45.09
2017-03-19T01:26:38.419Z,45.67
2017-03-19T01:27:10.746Z,45.57
2017-03-19T01:27:43.075Z,45
2017-03-19T01:28:15.396Z,45.67
2017-03-19T01:28:47.772Z,45.57
2017-03-19T01:29:20.096Z,45.67
2017-03-19T01:29:52.395Z,45.09
2017-03-19T01:30:24.704Z,45.37
2017-03-19T01:30:57.028Z,45
2017-03-19T01:31:29.342Z,45.37
2017-03-19T01:32:01.654Z,45
2017-03-19T01:32:33.966Z,45.09
2017-03-19T01:33:06.292Z,45.09
2017-03-19T01:33:38.610Z,45.67
2017-03-19T01:34:10.938Z,45.67
2017-03-19T01:34:43.247Z,45.47
2017-03-19T01:35:15.543Z,45.47
2017-03-19T01:35:47.863Z,45.18
2017-03-19T01:36:20.170Z,45.09
2017-03-19T01:36:52.481Z,45.47
2017-03-19T01:37:24.811Z,45.47
2017-03-19T01:37:57.141Z,45.47
2017-03-19T01:38:29.458Z,45.47
2017-03-19T01:39:01.777Z,45
2017-03-19T01:39:34.105Z,45.67
2017-03-19T01:40:06.411Z,45.47
2017-03-19T01:40:38.740Z,45.09
2017-03-19T01:41:11.071Z,45.47
2017-03-19T01:41:43.374Z,45
2017-03-19T01:42:15.689Z,45
2017-03-19T01:42:48.005Z,45.57
2017-03-19T01:43:20.337Z,45.57
2017-03-19T01:43:52.660Z,45.57
2017-03-19T01:44:24.990Z,45.37
2017-03-19T01:44:57.310Z,45
2017-03-19T01:45:29.631Z,45.57
2017-03-19T01:46:01.948Z,45.57
2017-03-19T01:46:34.263Z,45
2017-03-19T01:47:06.561Z,45
2017-03-19T01:47:38.877Z,45.47
2017-03-19T01:48:11.186Z,45.47
2017-03-19T01:48:43.499Z,45.18
2017-03-19T01:49:15.799Z,45.57
2017-03-19T01:49:48.123Z,45.67
2017-03-19T01:50:20.431Z,45
2017-03-19T01:50:52.738Z,45.57
2017-03-19T01:51:25.050Z,45.09
2017-03-19T01:51:57.346Z,45
2017-03-19T01:52:29.592Z,45.57
2017-03-19T01:53:01.845Z,45.47
2017-03-19T01:53:35.057Z,45.47
2017-03-19T01:54:07.350Z,45.57
2017-03-19T01:54:39.605Z,45.67
2017-03-19T01:55:11.850Z,45.47
2017-03-19T01:55:44.106Z,45.57
2017-03-19T01:56:16.351Z,45.76
2017-03-19T01:56:48.595Z,45.09
2017-03-19T01:57:20.930Z,45
2017-03-19T01:57:53.172Z,45.37
2017-03-19T01:58:25.437Z,45.57
2017-03-19T01:58:57.696Z,45.37
2017-03-19T01:59:29.968Z,45.37
2017-03-19T02:00:02.230Z,45.09
2017-03-19T02:00:34.536Z,45
2017-03-19T02:01:06.804Z,45.47
2017-03-19T02:01:39.091Z,45
2017-03-19T02:02:11.349Z,45
2017-03-19T02:02:43.600Z,45
2017-03-19T02:03:15.868Z,45.57
2017-03-19T02:03:48.223Z,45.57
2017-03-19T02:04:20.501Z,45.57
2017-03-19T02:04:52.766Z,45
2017-03-19T02:05:25.047Z,45.09
2017-03-19T02:05:57.304Z,45.57
2017-03-19T02:06:29.554Z,45.57
2017-03-19T02:07:02.418Z,45.57
2017-03-19T02:07:34.670Z,45.57
2017-03-19T02:08:06.933Z,45.57
2017-03-19T02:08:39.190Z,45.57
2017-03-19T02:09:11.434Z,45.47
2017-03-19T02:09:43.693Z,45.09
2017-03-19T02:10:16.894Z,45
2017-03-19T02:10:49.136Z,45
2017-03-19T02:11:21.381Z,45.57
2017-03-19T02:11:53.625Z,45
2017-03-19T02:12:25.880Z,45.09
2017-03-19T02:12:58.129Z,45.09
2017-03-19T02:13:30.492Z,45.57
2017-03-19T02:14:02.759Z,45.57
2017-03-19T02:14:35.040Z,45.57
2017-03-19T02:15:07.279Z,45
2017-03-19T02:15:39.528Z,45.57
2017-03-19T02:16:11.783Z,45
2017-03-19T02:16:44.959Z,45
2017-03-19T02:17:17.218Z,45.57
2017-03-19T02:17:49.475Z,45.57
2017-03-19T02:18:21.722Z,45
2017-03-19T02:18:53.986Z,45
2017-03-19T02:19:26.255Z,45.57
2017-03-19T02:19:58.550Z,45.57
2017-03-19T02:20:30.880Z,45
2017-03-19T02:21:03.144Z,45
2017-03-19T02:21:35.385Z,45.57
2017-03-19T02:22:07.652Z,45
2017-03-19T02:22:40.432Z,45.57
2017-03-19T02:23:12.683Z,45.57
2017-03-19T02:23:45.066Z,45.57
2017-03-19T02:24:17.322Z,45
2017-03-19T02:24:49.568Z,45.67
2017-03-19T02:25:21.841Z,45
2017-03-19T02:25:54.107Z,45.57
2017-03-19T02:26:26.374Z,45
2017-03-19T02:26:58.615Z,45.09
2017-03-19T02:27:30.865Z,44.9
2017-03-19T02:28:03.139Z,45
2017-03-19T02:28:35.409Z,45
2017-03-19T02:29:07.709Z,45.57
2017-03-19T02:29:40.027Z,45.57
2017-03-19T02:30:12.329Z,45.37
2017-03-19T02:30:44.568Z,45.57
2017-03-19T02:31:16.830Z,45.57
2017-03-19T02:31:49.079Z,45.09
2017-03-19T02:32:21.354Z,45.67
2017-03-19T02:32:53.621Z,45.57
2017-03-19T02:33:25.894Z,45.57
2017-03-19T02:33:58.156Z,45.67
2017-03-19T02:34:30.423Z,45.67
2017-03-19T02:35:03.396Z,45.76
2017-03-19T02:35:35.647Z,45
2017-03-19T02:36:07.887Z,45.57
2017-03-19T02:36:40.162Z,45.28
2017-03-19T02:37:12.423Z,45
2017-03-19T02:37:44.660Z,45.57
2017-03-19T02:38:16.923Z,45
2017-03-19T02:38:49.974Z,45.95
2017-03-19T02:39:22.247Z,45.76
2017-03-19T02:39:54.509Z,45.57
2017-03-19T02:40:26.787Z,45.57
2017-03-19T02:40:59.059Z,45.09
2017-03-19T02:41:31.325Z,45.57
2017-03-19T02:42:03.573Z,45.09
2017-03-19T02:42:35.837Z,45.76
2017-03-19T02:43:08.098Z,45.28
2017-03-19T02:43:40.355Z,45.86
2017-03-19T02:44:12.613Z,45.76
2017-03-19T02:44:44.865Z,45.76
2017-03-19T02:45:17.145Z,45.09
2017-03-19T02:45:49.389Z,45.57
2017-03-19T02:46:21.672Z,45.76
2017-03-19T02:46:53.926Z,45.57
2017-03-19T02:47:26.173Z,45.76
2017-03-19T02:47:58.421Z,45.76
2017-03-19T02:48:30.687Z,45.47
2017-03-19T02:49:02.929Z,45.28
2017-03-19T02:49:35.202Z,45.47
2017-03-19T02:50:07.454Z,45.76
2017-03-19T02:50:39.710Z,45.76
2017-03-19T02:51:11.969Z,45.28
2017-03-19T02:51:44.222Z,45.18
2017-03-19T02:52:16.555Z,45.37
2017-03-19T02:52:48.867Z,45
2017-03-19T02:53:21.178Z,45.76
2017-03-19T02:53:53.510Z,45.09
2017-03-19T02:54:25.830Z,45.86
2017-03-19T02:54:58.182Z,45.37
2017-03-19T02:55:30.547Z,45.09
2017-03-19T02:56:02.866Z,45.18
2017-03-19T02:56:35.190Z,45.76
2017-03-19T02:57:07.508Z,45.28
2017-03-19T02:57:39.819Z,45.18
2017-03-19T02:58:12.140Z,45.95
2017-03-19T02:58:44.478Z,46.05
2017-03-19T02:59:16.822Z,45.28
2017-03-19T02:59:49.197Z,45.28
2017-03-19T03:00:21.510Z,45.47
2017-03-19T03:00:53.818Z,46.05
2017-03-19T03:01:26.108Z,45.37
2017-03-19T03:01:58.411Z,45.37
2017-03-19T03:02:30.674Z,45.28
2017-03-19T03:03:02.916Z,45.37
2017-03-19T03:03:35.181Z,45.37
2017-03-19T03:04:07.431Z,45.37
2017-03-19T03:04:39.686Z,45.37
2017-03-19T03:05:12.539Z,46.24
2017-03-19T03:05:44.810Z,45.57
2017-03-19T03:06:18.050Z,45.28
2017-03-19T03:06:50.318Z,46.14
2017-03-19T03:07:22.602Z,45.47
2017-03-19T03:07:54.976Z,45.37
2017-03-19T03:08:27.244Z,45.28
2017-03-19T03:08:59.501Z,45.47
2017-03-19T03:09:31.756Z,45.37
2017-03-19T03:10:04.023Z,45.37
2017-03-19T03:10:37.031Z,45.37
2017-03-19T03:11:09.292Z,45.47
2017-03-19T03:11:41.547Z,45.37
2017-03-19T03:12:13.881Z,46.05
2017-03-19T03:12:46.204Z,45.28
2017-03-19T03:13:18.517Z,45.28
2017-03-19T03:13:50.861Z,45.57
2017-03-19T03:14:23.193Z,46.05
2017-03-19T03:14:55.542Z,46.24
2017-03-19T03:15:27.877Z,46.24
2017-03-19T03:16:00.208Z,46.34
2017-03-19T03:16:32.526Z,45.18
2017-03-19T03:17:04.865Z,45.37
2017-03-19T03:17:37.198Z,45.47
2017-03-19T03:18:09.538Z,46.05
2017-03-19T03:18:41.862Z,45.28
2017-03-19T03:19:14.206Z,45.37
2017-03-19T03:19:46.531Z,45.28
2017-03-19T03:20:18.874Z,46.05
2017-03-19T03:20:51.192Z,46.34
2017-03-19T03:21:23.517Z,45.18
2017-03-19T03:21:55.829Z,45.18
2017-03-19T03:22:28.160Z,46.05
2017-03-19T03:23:00.463Z,45.37
2017-03-19T03:23:32.787Z,46.05
2017-03-19T03:24:05.125Z,46.05
2017-03-19T03:24:37.463Z,45.47
2017-03-19T03:25:09.783Z,45.57
2017-03-19T03:25:42.083Z,45.28
2017-03-19T03:26:14.402Z,45.47
2017-03-19T03:26:46.735Z,45.57
2017-03-19T03:27:19.048Z,45.57
2017-03-19T03:27:51.365Z,45.47
2017-03-19T03:28:23.691Z,45.47
2017-03-19T03:28:56.019Z,45.37
2017-03-19T03:29:28.321Z,45.95
2017-03-19T03:30:00.634Z,45.47
2017-03-19T03:30:32.954Z,45.47
2017-03-19T03:31:05.254Z,45.28
2017-03-19T03:31:37.576Z,45.47
2017-03-19T03:32:09.880Z,45.28
2017-03-19T03:32:42.180Z,45.37
2017-03-19T03:33:14.502Z,45.28
2017-03-19T03:33:46.827Z,45.47
2017-03-19T03:34:19.150Z,45.47
2017-03-19T03:34:51.498Z,45.37
2017-03-19T03:35:23.814Z,45.95
2017-03-19T03:35:56.143Z,45.37
2017-03-19T03:36:28.470Z,45.86
2017-03-19T03:37:00.820Z,45.37
2017-03-19T03:37:33.137Z,45.37
2017-03-19T03:38:05.479Z,45.37
2017-03-19T03:38:37.788Z,45.28
2017-03-19T03:39:10.092Z,45.37
2017-03-19T03:39:42.409Z,45.37
2017-03-19T03:40:14.758Z,45.37
2017-03-19T03:40:47.071Z,45.37
2017-03-19T03:41:19.379Z,45.28
2017-03-19T03:41:51.701Z,45.37
2017-03-19T03:42:24.012Z,45.37
2017-03-19T03:42:56.315Z,45.37
2017-03-19T03:43:28.642Z,45.37
2017-03-19T03:44:00.975Z,45.47
2017-03-19T03:44:33.285Z,45.47
2017-03-19T03:45:05.641Z,45.57
2017-03-19T03:45:37.947Z,45.47
2017-03-19T03:46:10.260Z,45.57
2017-03-19T03:46:42.586Z,45.57
2017-03-19T03:47:14.906Z,45.57
2017-03-19T03:47:47.235Z,45.57
2017-03-19T03:48:19.562Z,45.28
2017-03-19T03:48:51.962Z,45.67
2017-03-19T03:49:24.292Z,45.57
2017-03-19T03:49:56.628Z,45.57
2017-03-19T03:50:28.957Z,45.47
2017-03-19T03:51:01.326Z,45.67
2017-03-19T03:51:33.632Z,45.57
2017-03-19T03:52:05.983Z,45.57
2017-03-19T03:52:38.292Z,45.67
2017-03-19T03:53:10.615Z,45.67
2017-03-19T03:53:42.939Z,45.47
2017-03-19T03:54:15.250Z,45.57
2017-03-19T03:54:47.577Z,46.05
2017-03-19T03:55:19.881Z,45.76
2017-03-19T03:55:52.190Z,45.57
2017-03-19T03:56:24.505Z,45.47
2017-03-19T03:56:56.826Z,45.47
2017-03-19T03:57:29.140Z,45.37
2017-03-19T03:58:01.489Z,45.57
2017-03-19T03:58:33.801Z,45.47
2017-03-19T03:59:06.131Z,45.37
2017-03-19T03:59:38.471Z,45.57
2017-03-19T04:00:10.817Z,45.37
2017-03-19T04:00:43.134Z,45.47
2017-03-19T04:01:15.487Z,45.67
2017-03-19T04:01:47.825Z,45.47
2017-03-19T04:02:20.102Z,45.57
2017-03-19T04:02:52.357Z,45.57
2017-03-19T04:03:24.623Z,45.67
2017-03-19T04:03:56.883Z,45.47
2017-03-19T04:04:29.131Z,45.86
2017-03-19T04:05:01.385Z,45.47
2017-03-19T04:05:33.644Z,45.47
2017-03-19T04:06:06.479Z,45.47
2017-03-19T04:06:38.727Z,45.67
2017-03-19T04:07:10.994Z,45.57
2017-03-19T04:07:43.270Z,45.47
2017-03-19T04:08:15.538Z,45.67
2017-03-19T04:08:47.803Z,45.76
2017-03-19T04:09:20.054Z,45.47
2017-03-19T04:09:52.352Z,45.57
2017-03-19T04:10:24.613Z,45.67
2017-03-19T04:10:56.870Z,45.67
2017-03-19T04:11:29.131Z,45.67
2017-03-19T04:12:01.431Z,45.67
2017-03-19T04:12:33.710Z,45.37
2017-03-19T04:13:05.977Z,45.67
2017-03-19T04:13:38.232Z,45.76
2017-03-19T04:14:10.489Z,45.57
2017-03-19T04:14:42.759Z,45.67
2017-03-19T04:15:15.017Z,45.67
2017-03-19T04:15:47.259Z,45.67
2017-03-19T04:16:19.513Z,45.67
2017-03-19T04:16:51.768Z,45.67
2017-03-19T04:17:24.053Z,45.57
2017-03-19T04:17:56.322Z,45.67
2017-03-19T04:18:28.626Z,45.67
2017-03-19T04:19:00.886Z,45.57
2017-03-19T04:19:33.137Z,45.67
2017-03-19T04:20:05.383Z,45.67
2017-03-19T04:20:37.640Z,45.67
2017-03-19T04:21:09.887Z,45.67
2017-03-19T04:21:42.148Z,45.67
2017-03-19T04:22:14.414Z,45.76
2017-03-19T04:22:46.663Z,46.34
2017-03-19T04:23:18.920Z,45.86
2017-03-19T04:23:51.184Z,45.67
2017-03-19T04:24:23.473Z,45.57
2017-03-19T04:24:55.769Z,45.57
2017-03-19T04:25:28.047Z,45.57
2017-03-19T04:26:00.314Z,46.24
2017-03-19T04:26:32.609Z,45.57
2017-03-19T04:27:04.871Z,46.05
2017-03-19T04:27:37.166Z,45.57
2017-03-19T04:28:09.445Z,46.24
2017-03-19T04:28:41.706Z,45.47
2017-03-19T04:29:13.980Z,45.47
2017-03-19T04:29:46.236Z,46.34
2017-03-19T04:30:18.488Z,45.47
2017-03-19T04:30:50.755Z,45.76
2017-03-19T04:31:23.122Z,45.76
2017-03-19T04:31:55.395Z,46.24
2017-03-19T04:32:27.709Z,46.34
2017-03-19T04:33:00.017Z,46.24
2017-03-19T04:33:32.382Z,45.86
2017-03-19T04:34:04.692Z,45.57
2017-03-19T04:34:37.013Z,45.76
2017-03-19T04:35:09.333Z,46.14
2017-03-19T04:35:41.662Z,46.05
2017-03-19T04:36:13.973Z,46.14
2017-03-19T04:36:46.279Z,46.05
2017-03-19T04:37:18.634Z,46.14
2017-03-19T04:37:50.953Z,45.95
2017-03-19T04:38:23.273Z,46.05
2017-03-19T04:38:55.616Z,46.14
2017-03-19T04:39:27.939Z,46.14
2017-03-19T04:40:00.268Z,45.95
2017-03-19T04:40:32.598Z,46.14
2017-03-19T04:41:04.909Z,46.14
2017-03-19T04:41:37.215Z,46.05
2017-03-19T04:42:09.512Z,45.76
2017-03-19T04:42:41.769Z,45.76
2017-03-19T04:43:14.050Z,45.76
2017-03-19T04:43:46.335Z,45.76
2017-03-19T04:44:18.615Z,45.86
2017-03-19T04:44:50.884Z,46.14
2017-03-19T04:45:24.069Z,45.86
2017-03-19T04:45:56.331Z,46.14
2017-03-19T04:46:28.585Z,46.14
2017-03-19T04:47:00.845Z,46.05
2017-03-19T04:47:33.096Z,46.05
2017-03-19T04:48:05.344Z,46.05
2017-03-19T04:48:37.619Z,45.86
2017-03-19T04:49:09.866Z,46.05
2017-03-19T04:49:42.934Z,46.05
2017-03-19T04:50:15.191Z,45.95
2017-03-19T04:50:47.430Z,46.05
2017-03-19T04:51:19.684Z,46.14
2017-03-19T04:51:51.933Z,46.05
2017-03-19T04:52:24.194Z,46.05
2017-03-19T04:52:56.440Z,45.76
2017-03-19T04:53:29.604Z,46.14
2017-03-19T04:54:01.901Z,46.05
2017-03-19T04:54:34.163Z,46.05
2017-03-19T04:55:06.423Z,45.95
2017-03-19T04:55:38.701Z,46.05
2017-03-19T04:56:10.953Z,46.14
2017-03-19T04:56:43.189Z,45.95
2017-03-19T04:57:15.442Z,46.14
2017-03-19T04:57:47.684Z,46.14
2017-03-19T04:58:20.105Z,46.05
2017-03-19T04:58:52.358Z,46.14
2017-03-19T04:59:24.615Z,46.14
2017-03-19T04:59:56.858Z,46.05
2017-03-19T05:00:29.134Z,46.05
2017-03-19T05:01:01.375Z,46.05
2017-03-19T05:01:33.645Z,46.14
2017-03-19T05:02:05.926Z,46.14
2017-03-19T05:02:38.181Z,46.05
2017-03-19T05:03:11.089Z,46.14
2017-03-19T05:03:43.361Z,45.95
2017-03-19T05:04:15.656Z,46.14
2017-03-19T05:04:47.916Z,45.95
2017-03-19T05:05:20.173Z,45.95
2017-03-19T05:05:52.430Z,46.05
2017-03-19T05:06:24.698Z,46.14
2017-03-19T05:06:56.928Z,46.24
2017-03-19T05:07:29.276Z,46.24
2017-03-19T05:08:01.542Z,46.24
2017-03-19T05:08:33.794Z,46.14
2017-03-19T05:09:06.635Z,46.05
2017-03-19T05:09:38.913Z,46.05
2017-03-19T05:10:11.160Z,46.05
2017-03-19T05:10:43.429Z,46.05
2017-03-19T05:11:15.686Z,46.14
2017-03-19T05:11:47.938Z,45.95
2017-03-19T05:12:20.246Z,46.24
2017-03-19T05:12:52.571Z,46.24
2017-03-19T05:13:24.894Z,46.24
2017-03-19T05:13:57.234Z,45.95
2017-03-19T05:14:29.545Z,45.95
2017-03-19T05:15:01.870Z,46.34
2017-03-19T05:15:34.183Z,45.76
2017-03-19T05:16:06.504Z,46.34
2017-03-19T05:16:38.828Z,45.95
2017-03-19T05:17:11.143Z,45.76
2017-03-19T05:17:43.462Z,45.86
2017-03-19T05:18:15.777Z,46.14
2017-03-19T05:18:48.114Z,45.86
2017-03-19T05:19:20.426Z,46.43
2017-03-19T05:19:52.761Z,46.34
2017-03-19T05:20:25.082Z,46.24
2017-03-19T05:20:57.387Z,46.24
2017-03-19T05:21:29.705Z,46.43
2017-03-19T05:22:02.024Z,46.34
2017-03-19T05:22:34.299Z,45.86
2017-03-19T05:23:06.556Z,46.34
2017-03-19T05:23:38.809Z,45.95
2017-03-19T05:24:11.071Z,45.95
2017-03-19T05:24:43.329Z,46.05
2017-03-19T05:25:16.511Z,46.43
2017-03-19T05:25:48.786Z,46.34
2017-03-19T05:26:21.036Z,46.05
2017-03-19T05:26:53.295Z,46.14
2017-03-19T05:27:25.552Z,46.43
2017-03-19T05:27:57.812Z,45.95
2017-03-19T05:28:30.078Z,46.34
2017-03-19T05:29:02.337Z,46.24
2017-03-19T05:29:34.630Z,45.95
2017-03-19T05:30:06.895Z,45.95
2017-03-19T05:30:39.144Z,46.14
2017-03-19T05:31:11.414Z,45.95
2017-03-19T05:31:43.653Z,46.34
2017-03-19T05:32:15.915Z,46.14
2017-03-19T05:32:48.237Z,45.95
2017-03-19T05:33:20.563Z,46.34
2017-03-19T05:33:52.897Z,45.86
2017-03-19T05:34:25.216Z,46.34
2017-03-19T05:34:57.548Z,46.05
2017-03-19T05:35:29.880Z,46.24
2017-03-19T05:36:02.195Z,46.34
2017-03-19T05:36:34.506Z,46.62
2017-03-19T05:37:06.818Z,45.86
2017-03-19T05:37:39.178Z,45.95
2017-03-19T05:38:11.486Z,45.86
2017-03-19T05:38:43.823Z,45.86
2017-03-19T05:39:16.141Z,46.05
2017-03-19T05:39:48.463Z,45.76
2017-03-19T05:40:20.777Z,45.95
2017-03-19T05:40:53.093Z,45.95
2017-03-19T05:41:25.416Z,45.86
2017-03-19T05:41:57.708Z,45.95
2017-03-19T05:42:29.972Z,45.86
2017-03-19T05:43:02.227Z,46.14
2017-03-19T05:43:34.491Z,45.86
2017-03-19T05:44:06.761Z,45.86
2017-03-19T05:44:39.018Z,46.14
2017-03-19T05:45:11.247Z,46.14
2017-03-19T05:45:43.991Z,46.24
2017-03-19T05:46:16.275Z,45.76
2017-03-19T05:46:48.529Z,45.95
2017-03-19T05:47:20.787Z,45.95
2017-03-19T05:47:53.044Z,45.86
2017-03-19T05:48:25.306Z,46.05
2017-03-19T05:48:57.576Z,46.14
2017-03-19T05:49:29.825Z,45.76
2017-03-19T05:50:02.085Z,46.05
2017-03-19T05:50:34.334Z,46.05
2017-03-19T05:51:06.618Z,46.05
2017-03-19T05:51:38.867Z,46.05
2017-03-19T05:52:11.117Z,45.76
2017-03-19T05:52:43.429Z,45.95
2017-03-19T05:53:15.732Z,46.14
2017-03-19T05:53:48.070Z,45.76
2017-03-19T05:54:20.402Z,45.95
2017-03-19T05:54:52.732Z,46.05
2017-03-19T05:55:25.072Z,46.05
2017-03-19T05:55:57.401Z,46.14
2017-03-19T05:56:29.719Z,46.14
2017-03-19T05:57:02.129Z,45.86
2017-03-19T05:57:34.465Z,45.95
2017-03-19T05:58:06.775Z,45.95
2017-03-19T05:58:39.103Z,46.14
2017-03-19T05:59:11.431Z,46.14
2017-03-19T05:59:43.770Z,45.95
2017-03-19T06:00:16.095Z,45.95
2017-03-19T06:00:48.415Z,46.24
2017-03-19T06:01:20.733Z,46.05
2017-03-19T06:01:53.042Z,46.14
2017-03-19T06:02:25.365Z,46.34
2017-03-19T06:02:57.681Z,46.34
2017-03-19T06:03:30.043Z,46.24
2017-03-19T06:04:02.364Z,46.24
2017-03-19T06:04:34.685Z,46.14
2017-03-19T06:05:07.012Z,46.24
2017-03-19T06:05:39.341Z,46.14
2017-03-19T06:06:11.678Z,46.14
2017-03-19T06:06:44.003Z,46.14
2017-03-19T06:07:16.329Z,46.05
2017-03-19T06:07:48.651Z,46.14
2017-03-19T06:08:20.956Z,46.14
2017-03-19T06:08:53.270Z,46.14
2017-03-19T06:09:25.597Z,46.14
2017-03-19T06:09:57.923Z,46.05
2017-03-19T06:10:30.250Z,46.05
2017-03-19T06:11:02.564Z,46.14
2017-03-19T06:11:34.880Z,46.14
2017-03-19T06:12:07.162Z,46.24
2017-03-19T06:12:39.413Z,46.05
2017-03-19T06:13:11.668Z,46.34
2017-03-19T06:13:43.936Z,46.05
2017-03-19T06:14:16.185Z,46.14
2017-03-19T06:14:48.458Z,46.05
2017-03-19T06:15:20.715Z,46.14
2017-03-19T06:15:53.087Z,46.14
2017-03-19T06:16:25.324Z,46.24
2017-03-19T06:16:57.595Z,46.14
2017-03-19T06:17:29.860Z,45.95
2017-03-19T06:18:02.119Z,46.14
2017-03-19T06:18:35.158Z,46.34
2017-03-19T06:19:07.416Z,46.24
2017-03-19T06:19:39.686Z,46.53
2017-03-19T06:20:12.661Z,46.34
2017-03-19T06:20:44.932Z,46.24
2017-03-19T06:21:17.186Z,46.05
2017-03-19T06:21:50.031Z,46.05
2017-03-19T06:22:22.349Z,46.14
2017-03-19T06:22:54.683Z,46.14
2017-03-19T06:23:27.030Z,46.05
2017-03-19T06:23:59.339Z,46.43
2017-03-19T06:24:31.659Z,46.43
2017-03-19T06:25:03.979Z,46.34
2017-03-19T06:25:36.316Z,46.14
2017-03-19T06:26:08.633Z,46.53
2017-03-19T06:26:40.948Z,46.43
2017-03-19T06:27:13.248Z,46.53
2017-03-19T06:27:45.574Z,46.62
2017-03-19T06:28:17.901Z,46.34
2017-03-19T06:28:50.274Z,46.34
2017-03-19T06:29:22.597Z,46.62
2017-03-19T06:29:54.924Z,46.14
2017-03-19T06:30:27.408Z,46.14
2017-03-19T06:30:59.935Z,46.14
2017-03-19T06:31:32.229Z,46.05
2017-03-19T06:32:04.554Z,46.14
2017-03-19T06:32:36.871Z,45.95
2017-03-19T06:33:09.195Z,46.43
2017-03-19T06:33:41.516Z,46.62
2017-03-19T06:34:13.851Z,46.62
2017-03-19T06:34:46.183Z,46.34
2017-03-19T06:35:18.500Z,46.34
2017-03-19T06:35:50.827Z,46.53
2017-03-19T06:36:23.148Z,46.53
2017-03-19T06:36:55.461Z,46.62
2017-03-19T06:37:27.816Z,46.53
2017-03-19T06:38:00.137Z,46.34
2017-03-19T06:38:32.447Z,46.43
2017-03-19T06:39:04.751Z,46.53
2017-03-19T06:39:37.064Z,46.43
2017-03-19T06:40:09.370Z,46.62
2017-03-19T06:40:41.685Z,46.43
2017-03-19T06:41:13.979Z,46.43
2017-03-19T06:41:46.290Z,46.43
2017-03-19T06:42:18.626Z,46.34
2017-03-19T06:42:50.935Z,46.53
2017-03-19T06:43:23.237Z,46.53
2017-03-19T06:43:55.541Z,46.62
2017-03-19T06:44:27.836Z,46.53
2017-03-19T06:45:00.133Z,46.53
2017-03-19T06:45:32.456Z,46.62
2017-03-19T06:46:04.773Z,46.43
2017-03-19T06:46:37.079Z,46.43
2017-03-19T06:47:09.389Z,46.43
2017-03-19T06:47:41.700Z,46.34
2017-03-19T06:48:14.017Z,46.43
2017-03-19T06:48:46.342Z,46.43
2017-03-19T06:49:18.669Z,46.53
2017-03-19T06:49:50.995Z,46.34
2017-03-19T06:50:23.318Z,46.72
2017-03-19T06:50:55.632Z,46.43
2017-03-19T06:51:27.939Z,46.43
2017-03-19T06:52:00.248Z,46.34
2017-03-19T06:52:32.550Z,46.43
2017-03-19T06:53:04.858Z,46.43
2017-03-19T06:53:37.167Z,46.53
2017-03-19T06:54:09.501Z,46.72
2017-03-19T06:54:41.830Z,46.34
2017-03-19T06:55:14.143Z,46.72
2017-03-19T06:55:46.448Z,46.43
2017-03-19T06:56:18.758Z,46.53
2017-03-19T06:56:51.076Z,46.72
2017-03-19T06:57:23.414Z,46.53
2017-03-19T06:57:55.749Z,46.62
2017-03-19T06:58:28.091Z,46.62
2017-03-19T06:59:00.420Z,46.81
2017-03-19T06:59:32.741Z,46.62
2017-03-19T07:00:05.088Z,46.34